createdAt,value
2023-01-20T00:02:16.685Z,36.50
2023-01-20T00:04:45.150Z,36.40
2023-01-20T00:07:15.003Z,40.10
2023-01-20T00:09:43.481Z,35.73
2023-01-20T00:12:11.828Z,38.00
2023-01-20T00:14:40.197Z,33.37
2023-01-20T00:17:08.585Z,35.73
2023-01-20T00:19:36.937Z,33.67
2023-01-20T00:22:05.311Z,39.50
2023-01-20T00:24:35.093Z,32.90
2023-01-20T00:27:03.476Z,34.03
2023-01-20T00:29:31.977Z,36.03
2023-01-20T00:32:00.376Z,32.70
2023-01-20T00:34:28.933Z,36.73
2023-01-20T00:36:57.207Z,31.47
2023-01-20T00:39:25.561Z,33.53
2023-01-20T00:41:55.282Z,38.53
2023-01-20T00:44:23.657Z,36.93
2023-01-20T00:46:52.253Z,36.87
2023-01-20T00:49:20.685Z,37.80
2023-01-20T00:51:49.090Z,36.10
2023-01-20T00:54:17.442Z,35.83
2023-01-20T00:56:45.786Z,37.40
2023-01-20T00:59:15.701Z,36.20
2023-01-20T01:01:46.257Z,41.37
2023-01-20T01:04:14.733Z,34.30
2023-01-20T01:06:43.057Z,34.67
2023-01-20T01:09:11.425Z,35.43
2023-01-20T01:11:39.785Z,35.57
2023-01-20T01:14:08.083Z,38.90
2023-01-20T01:16:37.945Z,35.27
2023-01-20T01:19:06.326Z,36.60
2023-01-20T01:21:34.766Z,36.57
2023-01-20T01:24:03.127Z,35.30
2023-01-20T01:26:31.549Z,40.53
2023-01-20T01:29:00.299Z,34.73
2023-01-20T01:31:28.748Z,31.07
2023-01-20T01:33:58.462Z,34.30
2023-01-20T01:36:26.760Z,32.30
2023-01-20T01:38:58.947Z,31.47
2023-01-20T01:41:27.797Z,30.30
2023-01-20T01:44:02.572Z,37.60
2023-01-20T01:46:31.200Z,31.43
2023-01-20T01:49:01.117Z,30.43
2023-01-20T01:51:30.381Z,32.97
2023-01-20T01:53:59.565Z,29.20
2023-01-20T01:56:28.047Z,26.73
2023-01-20T01:58:57.019Z,28.00
2023-01-20T02:01:25.963Z,35.13
2023-01-20T02:03:55.533Z,28.40
2023-01-20T02:06:26.277Z,23.60
2023-01-20T02:08:54.851Z,24.17
2023-01-20T02:11:38.870Z,21.40
2023-01-20T02:14:07.194Z,23.33
2023-01-20T02:16:37.591Z,22.43
2023-01-20T02:19:10.812Z,25.80
2023-01-20T02:22:06.101Z,24.73
2023-01-20T02:24:50.408Z,23.23
2023-01-20T02:27:23.904Z,27.10
2023-01-20T02:30:01.494Z,23.30
2023-01-20T02:32:34.047Z,25.07
2023-01-20T02:35:03.627Z,23.87
2023-01-20T02:37:32.147Z,25.97
2023-01-20T02:40:07.314Z,24.63
2023-01-20T02:42:39.539Z,22.17
2023-01-20T02:45:08.569Z,21.83
2023-01-20T02:47:39.401Z,22.73
2023-01-20T02:50:09.234Z,22.67
2023-01-20T02:52:39.384Z,22.93
2023-01-20T02:55:08.305Z,21.93
2023-01-20T02:57:40.196Z,24.90
2023-01-20T03:00:09.914Z,23.47
2023-01-20T03:02:39.555Z,24.33
2023-01-20T03:05:08.748Z,21.37
2023-01-20T03:07:37.488Z,22.63
2023-01-20T03:10:06.955Z,23.47
2023-01-20T03:12:38.156Z,24.13
2023-01-20T03:15:06.990Z,22.87
2023-01-20T03:17:35.323Z,21.77
2023-01-20T03:20:05.263Z,23.57
2023-01-20T03:22:33.792Z,21.80
2023-01-20T03:25:02.075Z,20.67
2023-01-20T03:27:30.533Z,22.83
2023-01-20T03:29:58.866Z,23.67
2023-01-20T03:32:28.725Z,22.97
2023-01-20T03:34:57.235Z,26.43
2023-01-20T03:37:27.040Z,29.43
2023-01-20T03:39:56.479Z,31.90
2023-01-20T03:42:26.789Z,25.37
2023-01-20T03:44:59.353Z,29.03
2023-01-20T03:47:29.469Z,28.43
2023-01-20T03:49:58.277Z,29.87
2023-01-20T03:52:47.719Z,32.53
2023-01-20T03:55:17.687Z,32.67
2023-01-20T03:57:47.254Z,31.07
2023-01-20T04:00:16.001Z,33.10
2023-01-20T04:02:44.373Z,34.97
2023-01-20T04:05:13.199Z,34.50
2023-01-20T04:07:43.030Z,35.10
2023-01-20T04:10:12.359Z,35.60
2023-01-20T04:12:40.859Z,35.97
2023-01-20T04:15:09.534Z,37.80
2023-01-20T04:17:37.963Z,40.40
2023-01-20T04:20:07.509Z,42.50
2023-01-20T04:22:36.635Z,37.53
2023-01-20T04:25:08.624Z,37.60
2023-01-20T04:27:37.063Z,37.00
2023-01-20T04:30:05.681Z,36.80
2023-01-20T04:32:34.154Z,38.07
2023-01-20T04:35:02.533Z,40.60
2023-01-20T04:37:31.126Z,39.87
2023-01-20T04:39:59.494Z,41.97
2023-01-20T04:42:29.447Z,41.07
2023-01-20T04:44:57.832Z,41.60
2023-01-20T04:47:26.167Z,45.03
2023-01-20T04:49:54.567Z,42.37
2023-01-20T04:52:22.859Z,52.37
2023-01-20T04:54:51.335Z,43.03
2023-01-20T04:57:19.745Z,43.77
2023-01-20T04:59:49.990Z,39.83
2023-01-20T05:02:18.483Z,46.27
2023-01-20T05:04:46.920Z,42.43
2023-01-20T05:07:15.318Z,44.90
2023-01-20T05:09:43.695Z,39.17
2023-01-20T05:12:12.020Z,42.90
2023-01-20T05:14:40.418Z,45.60
2023-01-20T05:17:10.200Z,35.47
2023-01-20T05:19:38.532Z,39.70
2023-01-20T05:22:06.936Z,33.23
2023-01-20T05:24:35.318Z,35.97
2023-01-20T05:27:03.804Z,35.63
2023-01-20T05:29:32.418Z,34.47
2023-01-20T05:32:00.768Z,35.47
2023-01-20T05:34:30.531Z,31.27
2023-01-20T05:36:59.070Z,30.20
2023-01-20T05:39:27.371Z,29.17
2023-01-20T05:41:55.731Z,33.07
2023-01-20T05:44:24.116Z,27.17
2023-01-20T05:46:52.656Z,30.13
2023-01-20T05:49:21.131Z,25.30
2023-01-20T05:51:50.871Z,25.43
2023-01-20T05:54:19.273Z,24.43
2023-01-20T05:56:49.626Z,26.43
2023-01-20T05:59:18.086Z,27.23
2023-01-20T06:01:46.461Z,26.83
2023-01-20T06:04:14.817Z,26.10
2023-01-20T06:06:43.194Z,29.80
2023-01-20T06:09:13.175Z,27.93
2023-01-20T06:11:41.724Z,32.37
2023-01-20T06:14:10.147Z,26.53
2023-01-20T06:16:38.601Z,28.50
2023-01-20T06:19:07.016Z,26.33
2023-01-20T06:21:35.394Z,28.67
2023-01-20T06:24:03.911Z,27.10
2023-01-20T06:26:34.000Z,26.23
2023-01-20T06:29:02.905Z,32.50
2023-01-20T06:31:31.966Z,27.37
2023-01-20T06:34:00.361Z,30.80
2023-01-20T06:36:29.189Z,27.70
2023-01-20T06:38:57.542Z,28.57
2023-01-20T06:41:26.211Z,27.40
2023-01-20T06:43:55.982Z,29.50
2023-01-20T06:46:27.674Z,25.20
2023-01-20T06:49:00.549Z,26.37
2023-01-20T06:51:29.619Z,29.07
2023-01-20T06:53:58.317Z,25.30
2023-01-20T06:56:26.845Z,27.43
2023-01-20T06:58:56.679Z,28.23
2023-01-20T07:01:25.560Z,25.57
2023-01-20T07:03:54.008Z,26.70
2023-01-20T07:06:29.191Z,27.33
2023-01-20T07:08:58.905Z,28.70
2023-01-20T07:11:27.484Z,22.33
2023-01-20T07:13:57.367Z,24.87
2023-01-20T07:16:25.920Z,33.27
2023-01-20T07:18:54.507Z,27.97
2023-01-20T07:21:26.014Z,31.93
2023-01-20T07:23:54.754Z,29.00
2023-01-20T07:26:24.440Z,31.73
2023-01-20T07:28:53.066Z,30.27
2023-01-20T07:31:23.476Z,30.00
2023-01-20T07:33:52.015Z,28.73
2023-01-20T07:36:20.497Z,27.43
2023-01-20T07:38:49.523Z,24.80
2023-01-20T07:41:19.991Z,27.67
2023-01-20T07:43:50.091Z,31.20
2023-01-20T07:46:18.620Z,30.50
2023-01-20T07:48:48.365Z,29.23
2023-01-20T07:51:17.030Z,29.40
2023-01-20T07:53:46.892Z,27.73
2023-01-20T07:56:15.913Z,31.70
2023-01-20T07:58:45.282Z,34.13
2023-01-20T08:01:14.389Z,28.23
2023-01-20T08:03:42.926Z,32.50
2023-01-20T08:06:13.490Z,31.30
2023-01-20T08:08:41.962Z,32.23
2023-01-20T08:11:10.626Z,28.83
2023-01-20T08:13:39.537Z,31.50
2023-01-20T08:16:08.478Z,28.60
2023-01-20T08:18:37.084Z,31.07
2023-01-20T08:21:08.085Z,31.00
2023-01-20T08:23:38.201Z,29.37
2023-01-20T08:26:07.209Z,31.70
2023-01-20T08:28:35.898Z,29.80
2023-01-20T08:31:07.977Z,30.67
2023-01-20T08:33:39.438Z,29.67
2023-01-20T08:36:08.943Z,28.70
2023-01-20T08:38:38.907Z,31.27
2023-01-20T08:41:10.426Z,28.87
2023-01-20T08:43:38.974Z,27.00
2023-01-20T08:46:08.363Z,31.90
2023-01-20T08:48:36.969Z,33.27
2023-01-20T08:51:05.864Z,35.43
2023-01-20T08:53:34.418Z,32.90
2023-01-20T08:56:04.529Z,33.40
2023-01-20T08:58:33.329Z,29.67
2023-01-20T09:01:02.576Z,30.40
2023-01-20T09:03:33.096Z,25.47
2023-01-20T09:06:03.425Z,35.43
2023-01-20T09:08:32.468Z,35.67
2023-01-20T09:11:06.082Z,32.13
2023-01-20T09:13:34.737Z,32.53
2023-01-20T09:16:04.267Z,34.23
2023-01-20T09:18:32.878Z,30.57
2023-01-20T09:21:02.011Z,29.23
2023-01-20T09:23:30.385Z,31.80
2023-01-20T09:26:00.912Z,28.80
2023-01-20T09:28:30.988Z,35.13
2023-01-20T09:30:59.760Z,32.50
2023-01-20T09:33:28.223Z,27.63
2023-01-20T09:35:56.736Z,26.33
2023-01-20T09:38:39.109Z,23.13
2023-01-20T09:41:26.811Z,26.60
2023-01-20T09:43:58.241Z,23.93
2023-01-20T09:46:30.356Z,27.17
2023-01-20T09:49:17.897Z,25.53
2023-01-20T09:52:05.513Z,28.53
2023-01-20T09:54:34.663Z,28.33
2023-01-20T09:57:03.102Z,24.23
2023-01-20T09:59:36.509Z,24.90
2023-01-20T10:02:06.429Z,22.90
2023-01-20T10:04:36.996Z,25.13
2023-01-20T10:07:06.353Z,25.93
2023-01-20T10:09:37.356Z,20.70
2023-01-20T10:12:08.202Z,19.07
2023-01-20T10:14:38.945Z,24.37
2023-01-20T10:17:09.355Z,25.77
2023-01-20T10:19:39.016Z,18.77
2023-01-20T10:22:09.067Z,22.80
2023-01-20T10:24:37.713Z,25.47
2023-01-20T10:27:06.463Z,21.37
2023-01-20T10:29:39.847Z,27.27
2023-01-20T10:32:14.282Z,22.33
2023-01-20T10:34:44.511Z,19.53
2023-01-20T10:37:16.646Z,19.10
2023-01-20T10:39:47.054Z,23.97
2023-01-20T10:42:15.799Z,17.80
2023-01-20T10:44:44.219Z,19.63
2023-01-20T10:47:18.737Z,22.67
2023-01-20T10:49:54.512Z,21.67
2023-01-20T10:52:26.432Z,15.17
2023-01-20T10:54:56.341Z,20.57
2023-01-20T10:57:24.754Z,9.57
2023-01-20T10:59:53.457Z,4.60
2023-01-20T11:02:24.672Z,5.20
2023-01-20T11:04:54.745Z,3.80
2023-01-20T11:07:23.173Z,7.20
2023-01-20T11:09:51.567Z,4.47
2023-01-20T11:12:20.585Z,4.47
2023-01-20T11:14:48.989Z,4.17
2023-01-20T11:17:18.130Z,7.60
2023-01-20T11:19:48.517Z,7.47
2023-01-20T11:22:20.846Z,10.97
2023-01-20T11:24:49.194Z,7.93
2023-01-20T11:27:18.445Z,6.03
2023-01-20T11:29:47.323Z,10.10
2023-01-20T11:32:29.221Z,9.97
2023-01-20T11:34:58.999Z,10.27
2023-01-20T11:37:27.585Z,10.10
2023-01-20T11:40:00.382Z,14.60
2023-01-20T11:42:29.341Z,19.43
2023-01-20T11:45:05.706Z,12.53
2023-01-20T11:47:46.805Z,17.37
2023-01-20T11:50:30.354Z,10.57
2023-01-20T11:53:13.154Z,11.77
2023-01-20T11:55:45.939Z,17.87
2023-01-20T11:58:16.924Z,13.30
2023-01-20T12:00:46.131Z,13.53
2023-01-20T12:03:26.398Z,7.50
2023-01-20T12:05:57.601Z,7.73
2023-01-20T12:08:28.285Z,4.87
2023-01-20T12:10:56.914Z,2.53
2023-01-20T12:13:26.840Z,2.07
2023-01-20T12:15:55.920Z,6.53
2023-01-20T12:18:25.662Z,5.10
2023-01-20T12:20:55.956Z,3.77
2023-01-20T12:23:31.352Z,3.97
2023-01-20T12:26:00.130Z,4.30
2023-01-20T12:28:30.175Z,5.13
2023-01-20T12:31:01.985Z,2.83
2023-01-20T12:33:30.988Z,3.10
2023-01-20T12:36:20.038Z,8.43
2023-01-20T12:38:53.645Z,6.70
2023-01-20T12:41:26.693Z,7.93
2023-01-20T12:43:57.513Z,5.43
2023-01-20T12:46:28.088Z,3.77
2023-01-20T12:48:58.083Z,8.17
2023-01-20T12:51:32.946Z,5.00
2023-01-20T12:54:07.187Z,6.03
2023-01-20T12:56:39.958Z,5.43
2023-01-20T12:59:09.890Z,4.00
2023-01-20T13:01:47.211Z,3.50
2023-01-20T13:04:48.840Z,6.67
2023-01-20T13:07:32.513Z,6.67
2023-01-20T13:10:08.724Z,4.47
2023-01-20T13:12:39.484Z,6.47
2023-01-20T13:15:12.257Z,6.60
2023-01-20T13:17:41.155Z,6.93
2023-01-20T13:20:13.606Z,7.70
2023-01-20T13:22:42.216Z,5.20
2023-01-20T13:25:17.144Z,5.00
2023-01-20T13:27:45.696Z,6.10
2023-01-20T13:30:29.079Z,6.60
2023-01-20T13:32:58.558Z,6.10
2023-01-20T13:35:40.278Z,5.90
2023-01-20T13:38:14.964Z,5.10
2023-01-20T13:40:54.752Z,5.27
2023-01-20T13:43:39.209Z,5.87
2023-01-20T13:46:26.041Z,6.23
2023-01-20T13:49:12.727Z,5.67
2023-01-20T13:51:44.931Z,6.70
2023-01-20T13:54:34.259Z,4.50
2023-01-20T13:57:17.640Z,9.63
2023-01-20T13:59:47.438Z,4.20
2023-01-20T14:02:19.246Z,7.73
2023-01-20T14:04:47.777Z,5.00
2023-01-20T14:07:23.983Z,5.43
2023-01-20T14:09:55.399Z,3.33
2023-01-20T14:12:23.730Z,8.37
2023-01-20T14:14:53.564Z,6.80
2023-01-20T14:17:22.677Z,7.20
2023-01-20T14:19:51.351Z,6.20
2023-01-20T14:22:20.188Z,5.60
2023-01-20T14:24:48.623Z,7.23
2023-01-20T14:27:19.455Z,6.23
2023-01-20T14:29:47.838Z,7.50
2023-01-20T14:32:22.173Z,5.47
2023-01-20T14:34:50.739Z,5.67
2023-01-20T14:37:22.309Z,9.43
2023-01-20T14:39:51.318Z,7.10
2023-01-20T14:42:20.003Z,8.00
2023-01-20T14:44:48.940Z,7.43
2023-01-20T14:47:19.426Z,7.07
2023-01-20T14:49:48.391Z,7.00
2023-01-20T14:52:19.142Z,6.67
2023-01-20T14:54:49.559Z,7.60
2023-01-20T14:57:21.835Z,10.03
2023-01-20T14:59:50.505Z,17.00
2023-01-20T15:02:20.892Z,12.13
2023-01-20T15:04:49.626Z,9.27
2023-01-20T15:07:20.005Z,14.50
2023-01-20T15:09:52.649Z,11.97
2023-01-20T15:12:34.061Z,10.87
2023-01-20T15:15:05.798Z,15.83
2023-01-20T15:17:38.472Z,12.60
2023-01-20T15:20:21.687Z,12.73
2023-01-20T15:22:51.233Z,14.50
2023-01-20T15:25:19.707Z,14.70
2023-01-20T15:27:48.042Z,17.17
2023-01-20T15:30:19.337Z,14.90
2023-01-20T15:32:50.039Z,19.43
2023-01-20T15:35:19.926Z,17.00
2023-01-20T15:37:49.406Z,18.27
2023-01-20T15:40:18.612Z,19.57
2023-01-20T15:42:47.269Z,23.67
2023-01-20T15:45:16.087Z,20.87
2023-01-20T15:47:46.708Z,23.47
2023-01-20T15:50:24.301Z,23.87
2023-01-20T15:52:52.898Z,21.30
2023-01-20T15:55:21.232Z,24.17
2023-01-20T15:57:51.935Z,24.80
2023-01-20T16:00:23.675Z,21.20
2023-01-20T16:02:52.540Z,21.17
2023-01-20T16:05:22.569Z,21.67
2023-01-20T16:07:51.116Z,23.33
2023-01-20T16:10:19.843Z,23.07
2023-01-20T16:12:48.432Z,22.47
2023-01-20T16:15:17.336Z,22.47
2023-01-20T16:17:45.687Z,22.13
2023-01-20T16:20:19.521Z,21.30
2023-01-20T16:22:49.540Z,24.00
2023-01-20T16:25:18.484Z,22.33
2023-01-20T16:27:47.083Z,24.87
2023-01-20T16:30:17.552Z,30.50
2023-01-20T16:32:46.716Z,28.27
2023-01-20T16:35:15.505Z,27.27
2023-01-20T16:37:44.138Z,36.67
2023-01-20T16:40:15.790Z,42.50
2023-01-20T16:42:45.279Z,42.27
2023-01-20T16:45:24.389Z,45.23
2023-01-20T16:47:53.073Z,42.93
2023-01-20T16:50:21.459Z,42.33
2023-01-20T16:52:50.378Z,39.27
2023-01-20T16:55:20.875Z,40.73
2023-01-20T16:57:49.278Z,38.73
2023-01-20T17:00:19.439Z,41.70
2023-01-20T17:02:51.347Z,39.57
2023-01-20T17:05:22.730Z,39.23
2023-01-20T17:07:51.573Z,38.97
2023-01-20T17:10:22.171Z,43.97
2023-01-20T17:12:50.560Z,40.17
2023-01-20T17:15:19.084Z,39.00
2023-01-20T17:17:49.515Z,39.90
2023-01-20T17:20:18.249Z,35.23
2023-01-20T17:22:46.714Z,40.60
2023-01-20T17:25:17.882Z,43.67
2023-01-20T17:27:47.770Z,38.97
2023-01-20T17:30:17.032Z,39.00
2023-01-20T17:32:47.340Z,43.47
2023-01-20T17:35:15.999Z,39.37
2023-01-20T17:37:44.399Z,40.30
2023-01-20T17:40:13.214Z,43.87
2023-01-20T17:42:43.635Z,42.30
2023-01-20T17:45:13.754Z,45.83
2023-01-20T17:47:42.194Z,45.37
2023-01-20T17:50:11.084Z,42.50
2023-01-20T17:52:39.967Z,41.03
2023-01-20T17:55:09.528Z,41.27
2023-01-20T17:57:38.237Z,39.43
2023-01-20T18:00:07.184Z,39.03
2023-01-20T18:02:37.192Z,39.40
2023-01-20T18:05:05.883Z,41.77
2023-01-20T18:07:34.254Z,42.47
2023-01-20T18:10:02.756Z,39.03
2023-01-20T18:12:31.182Z,42.60
2023-01-20T18:14:59.713Z,34.20
2023-01-20T18:17:28.077Z,32.73
2023-01-20T18:19:57.921Z,32.10
2023-01-20T18:22:26.340Z,32.67
2023-01-20T18:24:55.063Z,30.90
2023-01-20T18:27:23.500Z,31.53
2023-01-20T18:29:51.905Z,31.57
2023-01-20T18:32:20.308Z,33.20
2023-01-20T18:34:48.663Z,27.67
2023-01-20T18:37:18.412Z,33.53
2023-01-20T18:39:46.802Z,32.80
2023-01-20T18:42:15.223Z,35.00
2023-01-20T18:44:43.756Z,30.77
2023-01-20T18:47:12.268Z,27.97
2023-01-20T18:49:40.700Z,28.80
2023-01-20T18:52:09.778Z,29.67
2023-01-20T18:54:39.635Z,31.23
2023-01-20T18:57:09.164Z,32.50
2023-01-20T18:59:37.759Z,32.03
2023-01-20T19:02:06.166Z,32.10
2023-01-20T19:04:35.785Z,34.27
2023-01-20T19:07:04.220Z,33.53
2023-01-20T19:09:32.687Z,32.50
2023-01-20T19:12:02.466Z,33.93
2023-01-20T19:14:30.866Z,36.23
2023-01-20T19:16:59.335Z,38.13
2023-01-20T19:19:28.055Z,35.27
2023-01-20T19:21:56.461Z,38.50
2023-01-20T19:24:28.932Z,37.47
2023-01-20T19:26:58.100Z,35.43
2023-01-20T19:29:29.460Z,36.23
2023-01-20T19:31:58.025Z,38.03
2023-01-20T19:34:27.159Z,37.33
2023-01-20T19:36:55.711Z,37.30
2023-01-20T19:39:24.188Z,44.43
2023-01-20T19:41:52.582Z,41.03
2023-01-20T19:44:20.918Z,44.43
2023-01-20T19:46:50.873Z,42.53
2023-01-20T19:49:19.321Z,42.40
2023-01-20T19:51:47.795Z,45.10
2023-01-20T19:54:16.623Z,47.33
2023-01-20T19:56:45.097Z,46.70
2023-01-20T19:59:13.465Z,46.83
2023-01-20T20:01:42.327Z,48.57
2023-01-20T20:04:13.028Z,50.97
2023-01-20T20:06:43.926Z,46.77
2023-01-20T20:09:13.916Z,50.67
2023-01-20T20:11:44.082Z,54.70
2023-01-20T20:14:13.282Z,55.77
2023-01-20T20:16:41.910Z,57.27
2023-01-20T20:19:13.379Z,53.30
2023-01-20T20:21:41.783Z,55.27
2023-01-20T20:24:12.429Z,51.13
2023-01-20T20:26:40.904Z,59.17
2023-01-20T20:29:09.724Z,54.13
2023-01-20T20:31:38.389Z,60.10
2023-01-20T20:34:06.977Z,55.17
2023-01-20T20:36:36.838Z,57.67
2023-01-20T20:39:05.296Z,57.87
2023-01-20T20:41:35.385Z,62.03
2023-01-20T20:44:03.899Z,60.30
2023-01-20T20:46:32.636Z,53.17
2023-01-20T20:49:02.009Z,59.63
2023-01-20T20:51:32.243Z,60.67
2023-01-20T20:54:02.611Z,59.43
2023-01-20T20:56:32.448Z,66.13
2023-01-20T20:59:03.072Z,55.20
2023-01-20T21:01:32.753Z,61.47
2023-01-20T21:04:01.283Z,59.80
2023-01-20T21:06:29.945Z,53.53
2023-01-20T21:08:58.779Z,52.00
2023-01-20T21:11:28.764Z,61.30
2023-01-20T21:13:57.149Z,53.50
2023-01-20T21:16:25.734Z,58.67
2023-01-20T21:18:56.241Z,60.57
2023-01-20T21:21:24.831Z,56.90
2023-01-20T21:23:53.695Z,61.33
2023-01-20T21:26:22.175Z,55.97
2023-01-20T21:28:52.035Z,55.70
2023-01-20T21:31:21.480Z,59.50
2023-01-20T21:33:53.552Z,58.50
2023-01-20T21:36:22.236Z,56.97
2023-01-20T21:38:50.935Z,64.77
2023-01-20T21:41:19.851Z,57.80
2023-01-20T21:44:05.819Z,56.27
2023-01-20T21:46:38.400Z,57.50
2023-01-20T21:49:25.042Z,55.00
2023-01-20T21:52:11.230Z,54.77
2023-01-20T21:54:41.274Z,62.17
2023-01-20T21:57:10.013Z,58.13
2023-01-20T21:59:38.512Z,64.80
2023-01-20T22:02:12.229Z,63.00
2023-01-20T22:04:41.003Z,57.87
2023-01-20T22:07:11.377Z,59.30
2023-01-20T22:09:40.038Z,60.47
2023-01-20T22:12:08.554Z,63.20
2023-01-20T22:14:38.428Z,59.40
2023-01-20T22:17:06.936Z,55.90
2023-01-20T22:19:36.629Z,53.17
2023-01-20T22:22:05.143Z,55.13
2023-01-20T22:24:33.647Z,57.37
2023-01-20T22:27:02.768Z,52.30
2023-01-20T22:29:31.418Z,51.10
2023-01-20T22:32:02.448Z,53.87
2023-01-20T22:34:30.790Z,75.30
2023-01-20T22:37:00.770Z,58.13
2023-01-20T22:39:29.265Z,51.50
2023-01-20T22:41:57.696Z,55.73
2023-01-20T22:44:26.202Z,56.40
2023-01-20T22:46:54.603Z,54.97
2023-01-20T22:49:22.962Z,57.40
2023-01-20T22:51:51.634Z,57.20
2023-01-20T22:54:21.687Z,59.07
2023-01-20T22:56:50.263Z,54.17
2023-01-20T22:59:18.756Z,55.07
2023-01-20T23:01:47.242Z,56.47
2023-01-20T23:04:16.034Z,63.13
2023-01-20T23:06:44.493Z,59.77
2023-01-20T23:09:14.486Z,60.17
2023-01-20T23:11:44.336Z,57.37
2023-01-20T23:14:14.506Z,56.93
2023-01-20T23:16:42.989Z,59.83
2023-01-20T23:19:11.542Z,66.13
2023-01-20T23:21:39.980Z,56.50
2023-01-20T23:24:09.538Z,58.47
2023-01-20T23:26:37.976Z,64.10
2023-01-20T23:29:07.765Z,61.03
2023-01-20T23:31:36.254Z,53.33
2023-01-20T23:34:04.647Z,61.27
2023-01-20T23:36:33.143Z,58.63
2023-01-20T23:39:01.574Z,60.13
2023-01-20T23:41:30.003Z,61.77
2023-01-20T23:43:58.503Z,65.53
2023-01-20T23:46:28.236Z,63.00
2023-01-20T23:48:56.643Z,62.27
2023-01-20T23:51:25.079Z,59.47
2023-01-20T23:53:53.538Z,65.97
2023-01-20T23:56:22.541Z,61.47
2023-01-20T23:58:50.935Z,65.93
